Time;durP1;ratioP1;P1;durP2;ratioP2;P2;SDS_P1;SDS_P2;PMS_P1;PMS_P2;Temp;Humidity;BMP_temperature;BMP_pressure;BME280_temperature;BME280_humidity;BME280_pressure;Samples;Min_cycle;Max_cycle;Signal;HPM_P1;HPM_P2
2024/02/14 00:01:18;;;;;;;8.75;2.85;;;;;;;8.33;75.49;101052.19;5060662;28;20107;-82
2024/02/14 00:03:45;;;;;;;6.53;3.03;;;;;;;8.33;75.22;101046.91;5059361;28;20049;-83
2024/02/14 00:06:13;;;;;;;4.72;3.13;;;;;;;8.32;75.39;101039.97;5062302;28;20411;-80
2024/02/14 00:08:42;;;;;;;6.57;2.80;;;;;;;8.33;75.58;101041.63;5061351;28;20080;-83
2024/02/14 00:11:08;;;;;;;5.47;3.30;;;;;;;8.37;75.54;101039.66;5068570;28;20076;-82
2024/02/14 00:13:35;;;;;;;5.03;2.90;;;;;;;8.40;75.49;101036.81;5059187;28;20076;-81
2024/02/14 00:16:02;;;;;;;4.07;2.88;;;;;;;8.41;75.50;101031.41;5060087;28;20140;-83
2024/02/14 00:18:30;;;;;;;4.32;3.03;;;;;;;8.41;75.63;101028.78;5059509;28;20142;-83
2024/02/14 00:20:56;;;;;;;6.40;3.00;;;;;;;8.34;76.66;101038.03;5059712;28;20047;-83
2024/02/14 00:23:26;;;;;;;4.55;2.88;;;;;;;8.39;76.82;101035.09;5059643;28;20049;-82
2024/02/14 00:25:59;;;;;;;5.32;2.92;;;;;;;8.40;77.17;101028.91;5061649;28;20091;-83
2024/02/14 00:28:26;;;;;;;5.35;3.00;;;;;;;8.39;76.71;101025.41;5063770;28;20049;-83
2024/02/14 00:30:53;;;;;;;4.82;3.38;;;;;;;8.41;76.46;101023.50;5060181;28;20052;-83
2024/02/14 00:33:25;;;;;;;5.22;3.35;;;;;;;8.42;76.89;101026.97;5059906;28;20055;-82
2024/02/14 00:36:01;;;;;;;3.25;2.55;;;;;;;8.43;76.85;101024.22;5062257;28;20112;-82
2024/02/14 00:38:27;;;;;;;4.15;2.85;;;;;;;8.48;75.98;101019.50;5051930;28;20124;-81
2024/02/14 00:40:55;;;;;;;5.15;2.58;;;;;;;8.45;76.51;101024.97;5058811;28;20049;-81
2024/02/14 00:43:22;;;;;;;4.18;2.80;;;;;;;8.45;76.70;101030.25;5064829;28;20060;-81
2024/02/14 00:45:49;;;;;;;4.55;2.97;;;;;;;8.47;77.13;101019.56;5063842;28;20091;-81
2024/02/14 00:48:15;;;;;;;4.22;2.92;;;;;;;8.41;77.68;101025.31;5059077;28;20163;-80
2024/02/14 00:54:27;;;;;;;3.92;2.55;;;;;;;8.43;78.41;101012.84;5034384;28;20652;-82
2024/02/14 00:56:55;;;;;;;3.73;2.43;;;;;;;8.42;78.26;101012.00;5059504;28;20143;-81
2024/02/14 00:59:22;;;;;;;5.32;2.63;;;;;;;8.39;78.28;101011.38;5053866;28;20151;-80
2024/02/14 01:02:23;;;;;;;4.43;2.88;;;;;;;8.39;78.89;101014.00;5054060;28;20060;-82
2024/02/14 01:04:55;;;;;;;3.75;2.60;;;;;;;8.41;78.24;101020.88;4973061;28;20061;-82
2024/02/14 01:07:26;;;;;;;3.50;2.80;;;;;;;8.41;77.94;101007.69;5050803;28;20140;-82
2024/02/14 01:09:54;;;;;;;4.65;2.45;;;;;;;8.43;78.63;101008.41;5058924;28;20049;-81
2024/02/14 01:12:40;;;;;;;3.40;2.42;;;;;;;8.46;78.08;100997.63;5048808;28;20136;-81
2024/02/14 01:15:16;;;;;;;3.97;2.33;;;;;;;8.44;78.51;101001.31;5055868;28;20045;-78
2024/02/14 01:17:43;;;;;;;4.60;2.45;;;;;;;8.41;78.69;101002.41;5053047;28;20561;-81
2024/02/14 01:20:16;;;;;;;6.07;3.08;;;;;;;8.42;78.49;100997.97;5057874;28;20056;-81
2024/02/14 01:22:43;;;;;;;4.40;2.40;;;;;;;8.40;79.08;100994.63;5057395;28;20049;-80
2024/02/14 01:25:10;;;;;;;3.28;2.50;;;;;;;8.41;78.42;100991.84;5050326;28;20048;-81
2024/02/14 01:27:38;;;;;;;4.85;2.55;;;;;;;8.44;78.64;100996.91;5057575;28;20122;-81
2024/02/14 01:30:06;;;;;;;5.63;2.72;;;;;;;8.44;78.74;100991.66;5057959;28;20053;-80
2024/02/14 01:32:33;;;;;;;4.15;2.60;;;;;;;8.45;79.28;100989.84;5058002;28;20543;-80
2024/02/14 01:35:00;;;;;;;3.38;2.47;;;;;;;8.48;79.08;100989.59;5058170;28;20056;-81
2024/02/14 01:37:29;;;;;;;3.53;2.40;;;;;;;8.47;78.88;100998.47;5058589;28;20049;-82
2024/02/14 01:39:57;;;;;;;2.85;2.50;;;;;;;8.45;79.07;100992.47;5051523;28;20087;-82
2024/02/14 01:42:23;;;;;;;3.72;2.53;;;;;;;8.45;79.44;100998.59;5050861;28;20462;-80
2024/02/14 01:44:59;;;;;;;4.57;2.50;;;;;;;8.43;79.93;101004.91;5050520;28;20127;-81
2024/02/14 01:47:35;;;;;;;6.65;2.75;;;;;;;8.44;79.78;100996.91;5058422;28;20095;-80
2024/02/14 01:50:28;;;;;;;2.70;2.10;;;;;;;8.44;80.28;100991.66;5058225;28;20049;-82
2024/02/14 01:52:58;;;;;;;;;;;;;;;8.46;80.59;100995.00;5054625;28;20056;-81
2024/02/14 01:55:29;;;;;;;4.18;2.33;;;;;;;8.46;80.11;100989.72;5058602;28;19920;-82
2024/02/14 01:58:08;;;;;;;1.75;1.63;;;;;;;8.48;79.90;100981.69;5058916;28;20082;-82
2024/02/14 02:01:00;;;;;;;;;;;;;;;;;;;;;
2024/02/14 02:03:36;;;;;;;3.50;2.40;;;;;;;8.43;81.04;100997.84;5057537;28;20111;-80
2024/02/14 02:06:06;;;;;;;4.25;2.35;;;;;;;8.53;80.18;100996.25;5058657;28;20068;-80
2024/02/14 02:08:34;;;;;;;3.75;2.30;;;;;;;8.52;80.33;100996.34;5041459;28;20053;-79
2024/02/14 02:11:01;;;;;;;2.95;2.40;;;;;;;8.49;80.78;100997.41;5056788;28;20395;-80
2024/02/14 02:13:27;;;;;;;4.38;2.17;;;;;;;8.54;80.77;100992.66;5057761;28;20056;-81
2024/02/14 02:15:56;;;;;;;2.35;2.05;;;;;;;8.57;80.70;100991.56;5056788;28;20045;-78
2024/02/14 02:18:25;;;;;;;3.92;1.88;;;;;;;8.50;80.75;100980.63;5053999;28;20057;-80
2024/02/14 02:20:55;;;;;;;2.33;2.03;;;;;;;8.50;81.67;100991.19;5052220;28;20049;-77
2024/02/14 02:23:23;;;;;;;2.25;2.05;;;;;;;8.49;81.96;100992.16;5047108;28;20349;-79
2024/02/14 02:25:50;;;;;;;1.95;1.85;;;;;;;8.49;81.66;100983.41;5053846;28;20068;-80
2024/02/14 02:28:17;;;;;;;2.90;2.08;;;;;;;8.55;81.32;100983.78;5053929;28;20577;-76
2024/02/14 02:30:45;;;;;;;2.38;2.17;;;;;;;8.56;81.46;100987.25;5054131;28;20107;-79
2024/02/14 02:33:12;;;;;;;2.88;2.25;;;;;;;8.61;81.46;100982.47;5054717;28;20049;-79
2024/02/14 02:35:42;;;;;;;2.38;1.73;;;;;;;8.56;81.30;100990.72;5055486;28;20077;-81
2024/02/14 02:38:11;;;;;;;2.50;1.90;;;;;;;8.62;81.63;100994.75;5062533;28;20499;-82
2024/02/14 02:40:39;;;;;;;3.53;1.98;;;;;;;8.61;81.31;101004.41;5057648;28;20076;-80
2024/02/14 02:43:06;;;;;;;3.20;1.77;;;;;;;8.64;81.81;101021.00;5056219;28;20202;-81
2024/02/14 02:45:33;;;;;;;3.05;2.50;;;;;;;8.60;81.71;101018.56;5063583;28;20119;-79
2024/02/14 02:48:02;;;;;;;2.40;1.73;;;;;;;8.63;81.72;101014.03;5063417;28;20156;-83
2024/02/14 02:50:30;;;;;;;3.55;2.10;;;;;;;8.69;81.74;101010.94;5063079;28;20052;-83
2024/02/14 02:52:57;;;;;;;2.47;2.10;;;;;;;8.66;81.73;101016.44;5060674;28;20119;-81
2024/02/14 02:55:24;;;;;;;2.92;1.92;;;;;;;8.57;81.81;101024.09;5053319;28;20049;-81
2024/02/14 02:57:52;;;;;;;3.38;2.40;;;;;;;8.64;81.94;101019.19;5060705;28;20510;-81
2024/02/14 03:00:21;;;;;;;2.58;2.17;;;;;;;8.65;82.00;101014.75;5060696;28;20495;-81
2024/02/14 03:02:49;;;;;;;3.78;2.30;;;;;;;8.61;82.16;101009.69;5061593;28;20064;-81
2024/02/14 03:05:23;;;;;;;2.15;1.75;;;;;;;8.61;82.50;101012.34;5055658;28;20063;-80
2024/02/14 03:07:50;;;;;;;3.63;2.10;;;;;;;8.67;82.22;101012.88;5058223;28;20049;-81
2024/02/14 03:10:20;;;;;;;2.22;2.00;;;;;;;8.60;82.58;101002.75;5068093;28;20052;-81
2024/02/14 03:12:48;;;;;;;4.47;2.20;;;;;;;8.69;82.52;101011.78;5066721;28;20112;-81
2024/02/14 03:15:18;;;;;;;2.90;2.13;;;;;;;8.69;82.39;101008.31;5059241;28;20044;-80
2024/02/14 03:17:45;;;;;;;3.28;2.00;;;;;;;8.68;82.58;101010.09;5059954;28;20049;-81
2024/02/14 03:20:13;;;;;;;3.90;2.38;;;;;;;8.70;82.94;100999.44;5058974;28;20475;-81
2024/02/14 03:22:44;;;;;;;2.05;1.63;;;;;;;8.75;83.13;101006.06;5059322;28;20061;-79
2024/02/14 03:25:13;;;;;;;2.53;2.33;;;;;;;8.73;82.90;101001.84;5062829;28;20049;-80
2024/02/14 03:27:39;;;;;;;3.80;2.63;;;;;;;8.71;83.24;101009.06;5069924;28;20056;-78
2024/02/14 03:30:07;;;;;;;4.18;2.30;;;;;;;8.71;83.49;101009.88;5066917;28;20083;-81
2024/02/14 03:32:36;;;;;;;2.22;1.90;;;;;;;8.78;83.57;101021.66;5070393;28;20168;-80
2024/02/14 03:35:02;;;;;;;5.03;2.33;;;;;;;8.73;83.78;101017.69;5069633;28;20044;-81
2024/02/14 03:37:29;;;;;;;3.63;2.22;;;;;;;8.76;84.10;101002.47;5069520;28;20060;-78
2024/02/14 03:39:56;;;;;;;2.80;2.30;;;;;;;8.74;83.94;101004.38;5069489;28;20079;-79
2024/02/14 03:42:23;;;;;;;3.08;2.45;;;;;;;8.79;84.13;100996.09;5069571;28;20085;-81
2024/02/14 03:44:49;;;;;;;4.28;2.42;;;;;;;8.75;84.44;101010.47;5067790;28;20064;-80
2024/02/14 03:47:16;;;;;;;3.97;2.72;;;;;;;8.74;83.84;101006.16;5065419;28;20040;-80
2024/02/14 03:49:44;;;;;;;2.53;1.90;;;;;;;8.72;84.33;100998.38;5070197;28;20107;-79
2024/02/14 03:52:11;;;;;;;2.58;2.30;;;;;;;8.76;84.58;101006.91;5070348;28;20048;-79
2024/02/14 03:54:38;;;;;;;2.92;2.30;;;;;;;8.72;84.36;101011.56;5071414;28;20072;-82
2024/02/14 03:57:06;;;;;;;3.88;2.40;;;;;;;8.72;84.41;101008.09;5072006;28;20052;-80
2024/02/14 03:59:35;;;;;;;2.38;2.08;;;;;;;8.70;84.48;101007.34;5071674;28;20053;-81
2024/02/14 04:02:01;;;;;;;3.15;2.45;;;;;;;8.68;84.69;101002.19;5069589;28;20119;-80
2024/02/14 04:04:28;;;;;;;3.40;2.50;;;;;;;8.70;84.92;101008.19;5055090;28;20080;-80
2024/02/14 04:06:58;;;;;;;3.28;2.38;;;;;;;8.74;84.70;101008.81;5060829;28;20045;-81
2024/02/14 04:09:25;;;;;;;2.53;2.33;;;;;;;8.69;84.98;101010.94;5059225;28;20060;-81
2024/02/14 04:11:55;;;;;;;3.25;2.35;;;;;;;8.69;85.07;101010.94;5059182;28;20045;-80
2024/02/14 04:14:22;;;;;;;4.75;2.20;;;;;;;8.67;85.25;101008.44;5059901;28;20076;-82
2024/02/14 04:16:49;;;;;;;3.40;2.40;;;;;;;8.69;85.08;101016.22;5062875;28;20060;-81
2024/02/14 04:19:17;;;;;;;3.78;2.50;;;;;;;8.74;85.25;101011.44;5061079;28;20064;-83
2024/02/14 04:21:44;;;;;;;3.28;2.47;;;;;;;8.74;85.38;101014.09;5061173;28;20041;-81
2024/02/14 04:24:12;;;;;;;3.47;2.55;;;;;;;8.76;85.10;101017.47;5058997;28;20053;-81
2024/02/14 04:26:38;;;;;;;4.45;3.22;;;;;;;8.76;85.99;101015.66;5059049;28;20076;-81
2024/02/14 04:29:05;;;;;;;13.45;10.07;;;;;;;8.77;85.50;101009.41;5058236;28;20087;-81
2024/02/14 04:31:32;;;;;;;5.43;4.28;;;;;;;8.80;85.90;101019.75;5060394;28;20124;-80
2024/02/14 04:33:58;;;;;;;4.30;3.85;;;;;;;8.79;85.74;101009.31;5057633;28;20433;-80
2024/02/14 04:36:25;;;;;;;6.80;5.95;;;;;;;8.86;85.60;101014.03;5057734;28;20080;-80
2024/02/14 04:46:45;;;;;;;6.40;5.15;;;;;;;8.81;86.25;101005.59;5032351;28;20467;-82
2024/02/14 04:52:36;;;;;;;8.32;6.63;;;;;;;8.54;87.28;101024.31;5045283;28;20055;-81
2024/02/14 04:55:10;;;;;;;5.25;3.72;;;;;;;8.50;87.50;101017.56;5059414;28;20158;-81
2024/02/14 04:57:59;;;;;;;6.00;4.30;;;;;;;8.49;87.58;101031.72;5049066;28;20060;-80
2024/02/14 05:03:30;;;;;;;6.05;4.43;;;;;;;8.58;87.37;101024.94;5064745;28;20057;-80
2024/02/14 05:06:10;;;;;;;9.43;4.75;;;;;;;8.64;87.10;101028.91;5059672;28;20052;-80
2024/02/14 05:08:45;;;;;;;4.20;3.10;;;;;;;8.64;87.12;101031.53;5049553;28;20298;-81
2024/02/14 05:11:23;;;;;;;3.05;2.63;;;;;;;8.76;86.98;101039.41;5057071;28;20049;-83
2024/02/14 05:13:49;;;;;;;5.15;3.95;;;;;;;8.77;87.21;101040.25;5060418;28;20121;-83
2024/02/14 05:16:19;;;;;;;3.50;3.03;;;;;;;8.81;87.42;101037.28;5065462;28;20049;-81
2024/02/14 05:18:46;;;;;;;3.58;3.15;;;;;;;8.82;87.41;101046.03;5063032;28;20060;-82
2024/02/14 05:21:13;;;;;;;3.25;2.70;;;;;;;8.87;88.15;101041.25;5060824;28;20068;-82
2024/02/14 05:23:40;;;;;;;4.40;3.40;;;;;;;8.93;88.38;101050.50;5056974;28;20052;-82
2024/02/14 05:26:08;;;;;;;3.72;2.47;;;;;;;8.88;88.95;101048.22;5054229;28;20061;-79
2024/02/14 05:28:37;;;;;;;2.72;2.33;;;;;;;8.83;89.90;101052.97;5055479;28;20049;-80
2024/02/14 05:37:05;;;;;;;;;;;;;;;8.79;91.91;101056.81;5057591;28;20060;-81
2024/02/14 05:39:46;;;;;;;4.70;3.60;;;;;;;8.78;91.62;101057.75;5050941;28;19974;-82
2024/02/14 05:49:06;;;;;;;4.55;2.65;;;;;;;8.77;91.40;101067.47;5056823;28;20428;-80
2024/02/14 05:54:52;;;;;;;3.25;2.85;;;;;;;8.76;91.69;101064.97;5044642;28;20067;-80
2024/02/14 06:00:42;;;;;;;4.93;2.95;;;;;;;8.73;93.01;101059.91;5053076;28;20372;-79
2024/02/14 06:03:38;;;;;;;4.47;3.40;;;;;;;8.68;93.52;101056.75;4992898;28;20076;-80
2024/02/14 06:06:38;;;;;;;6.32;3.15;;;;;;;8.66;94.44;101058.66;4933929;29;20107;-80
2024/02/14 06:09:37;;;;;;;5.72;3.90;;;;;;;8.65;94.79;101051.69;5023531;28;20128;-81
2024/02/14 06:12:22;;;;;;;4.70;3.72;;;;;;;8.57;95.19;101055.75;5059185;28;20048;-82
2024/02/14 06:18:07;;;;;;;4.90;3.20;;;;;;;8.46;96.28;101053.03;5053309;28;20064;-80
2024/02/14 06:20:46;;;;;;;5.78;3.20;;;;;;;8.49;95.54;101055.44;5059417;28;20049;-83
2024/02/14 06:23:36;;;;;;;3.60;2.90;;;;;;;8.48;96.27;101058.19;5060767;28;20053;-83
2024/02/14 06:26:20;;;;;;;3.60;3.00;;;;;;;8.51;95.71;101056.16;5060308;28;20049;-79
2024/02/14 06:28:58;;;;;;;4.68;3.10;;;;;;;8.55;95.43;101070.81;5054482;28;20049;-81
2024/02/14 06:31:28;;;;;;;5.10;3.05;;;;;;;8.56;95.57;101072.50;5052143;28;20055;-80
2024/02/14 06:33:58;;;;;;;6.75;4.22;;;;;;;8.60;95.50;101071.34;5062145;28;20414;-79
2024/02/14 06:36:33;;;;;;;4.80;4.10;;;;;;;8.68;95.34;101078.72;5054812;28;20060;-83
2024/02/14 06:39:41;;;;;;;4.57;3.28;;;;;;;8.74;94.83;101072.97;5063366;28;20049;-80
2024/02/14 06:48:15;;;;;;;4.78;3.42;;;;;;;8.95;93.79;101081.13;5057762;28;20283;-82
2024/02/14 06:51:29;;;;;;;8.02;3.67;;;;;;;9.02;93.05;101073.63;5044846;28;20069;-84
2024/02/14 06:54:15;;;;;;;3.88;3.05;;;;;;;9.00;92.59;101079.00;5053498;28;20047;-82
2024/02/14 06:57:19;;;;;;;3.58;2.85;;;;;;;9.00;93.28;101084.28;5060967;28;20551;-83
2024/02/14 06:59:49;;;;;;;3.80;2.90;;;;;;;8.99;92.96;101087.03;5048573;28;20049;-82
2024/02/14 07:05:46;;;;;;;5.43;4.00;;;;;;;9.00;92.61;101086.91;5046116;28;20056;-82
2024/02/14 07:08:29;;;;;;;9.32;7.32;;;;;;;8.98;92.72;101095.91;5051348;28;20041;-83
2024/02/14 07:11:01;;;;;;;4.00;2.97;;;;;;;8.98;92.36;101095.91;5050445;28;20060;-79
2024/02/14 07:13:28;;;;;;;6.43;4.28;;;;;;;9.01;92.51;101104.44;5061573;28;20047;-80
2024/02/14 07:16:23;;;;;;;5.82;2.97;;;;;;;9.07;92.06;101101.34;5063105;28;20045;-81
2024/02/14 07:19:22;;;;;;;4.90;3.75;;;;;;;9.08;92.16;101104.84;5056982;28;20068;-80
2024/02/14 07:21:51;;;;;;;4.78;2.30;;;;;;;9.10;92.10;101103.75;5059174;28;20060;-80
2024/02/14 07:24:21;;;;;;;3.10;2.67;;;;;;;9.22;91.85;101109.09;5067728;28;20101;-80
2024/02/14 07:27:05;;;;;;;3.95;2.47;;;;;;;9.28;91.17;101113.91;5066735;28;20040;-81
2024/02/14 07:29:45;;;;;;;2.47;2.28;;;;;;;9.23;90.96;101110.78;5057461;28;20053;-80
2024/02/14 07:32:23;;;;;;;2.50;2.15;;;;;;;9.21;91.31;101112.69;5059666;28;20066;-79
2024/02/14 07:35:02;;;;;;;4.32;2.58;;;;;;;9.20;90.66;101111.03;5058273;28;20044;-79
2024/02/14 07:37:36;;;;;;;2.38;2.03;;;;;;;9.23;90.51;101116.06;5058718;28;20474;-78
2024/02/14 07:40:08;;;;;;;3.55;2.40;;;;;;;9.28;90.25;101116.56;5058138;28;20045;-80
2024/02/14 07:42:41;;;;;;;5.00;2.50;;;;;;;9.27;89.70;101120.16;5049960;28;20487;-81
2024/02/14 07:45:08;;;;;;;2.65;2.13;;;;;;;9.28;91.24;101120.03;5058744;28;20084;-80
2024/02/14 07:47:35;;;;;;;2.88;1.67;;;;;;;9.31;90.67;101118.97;5060399;28;20467;-80
2024/02/14 07:50:02;;;;;;;2.92;2.15;;;;;;;9.29;91.08;101121.75;5059074;28;20076;-80
2024/02/14 07:52:29;;;;;;;4.30;1.73;;;;;;;9.35;90.98;101123.06;5051530;28;20041;-80
2024/02/14 07:54:58;;;;;;;10.02;6.30;;;;;;;9.35;90.16;101116.00;5060823;28;20075;-79
2024/02/14 07:57:25;;;;;;;14.93;8.18;;;;;;;9.38;89.17;101114.09;5061071;28;20111;-79
2024/02/14 07:59:53;;;;;;;4.70;3.03;;;;;;;9.48;89.24;101118.56;5060724;28;20055;-78
2024/02/14 08:02:22;;;;;;;4.10;3.58;;;;;;;9.51;88.52;101113.06;5063239;28;20080;-79
2024/02/14 08:04:48;;;;;;;3.38;2.30;;;;;;;9.53;88.38;101116.41;5063998;28;20079;-79
2024/02/14 08:07:15;;;;;;;4.57;3.80;;;;;;;9.48;88.61;101123.84;5062313;28;20053;-81
2024/02/14 08:09:42;;;;;;;2.78;2.53;;;;;;;9.51;88.78;101122.75;5063265;28;20064;-80
2024/02/14 08:12:08;;;;;;;3.05;2.75;;;;;;;9.49;88.88;101122.88;5063459;28;20103;-79
2024/02/14 08:14:36;;;;;;;3.00;2.60;;;;;;;9.51;88.86;101118.34;5064909;28;20053;-79
2024/02/14 08:17:05;;;;;;;3.88;2.17;;;;;;;9.53;88.76;101118.22;5064848;28;20453;-82
2024/02/14 08:19:32;;;;;;;11.50;2.90;;;;;;;9.66;88.17;101124.25;5060667;28;20053;-83
2024/02/14 08:22:01;;;;;;;2.28;2.08;;;;;;;9.74;87.54;101123.69;5065156;28;20100;-82
2024/02/14 08:24:28;;;;;;;3.10;2.75;;;;;;;9.82;87.00;101129.22;5049879;28;20188;-82
2024/02/14 08:26:55;;;;;;;4.70;2.90;;;;;;;9.81;87.11;101128.38;5063749;28;20076;-82
2024/02/14 08:29:22;;;;;;;4.18;2.95;;;;;;;9.96;86.46;101122.88;5062799;28;20052;-80
2024/02/14 08:31:48;;;;;;;3.67;2.90;;;;;;;9.90;86.63;101134.75;5057551;28;20045;-83
2024/02/14 08:34:17;;;;;;;2.60;2.20;;;;;;;10.00;85.79;101127.81;5061891;28;20041;-82
2024/02/14 08:36:43;;;;;;;3.42;3.00;;;;;;;10.01;86.26;101132.16;5058457;28;20088;-82
2024/02/14 08:39:11;;;;;;;3.63;1.92;;;;;;;10.10;85.40;101128.78;5053533;28;20046;-81
2024/02/14 08:41:43;;;;;;;4.43;1.88;;;;;;;10.12;85.63;101129.50;5059096;28;20050;-82
2024/02/14 08:44:12;;;;;;;2.35;2.08;;;;;;;10.07;85.52;101126.38;5061010;28;20072;-80
2024/02/14 08:46:39;;;;;;;2.38;1.92;;;;;;;10.07;86.16;101139.59;5038075;28;20147;-82
2024/02/14 08:49:08;;;;;;;3.55;1.98;;;;;;;10.25;85.66;101142.66;5060688;28;20053;-82
2024/02/14 08:51:36;;;;;;;3.28;2.20;;;;;;;10.27;85.72;101137.25;5064691;28;20585;-82
2024/02/14 08:54:04;;;;;;;3.78;2.17;;;;;;;10.32;85.58;101141.22;5064081;28;20076;-81
2024/02/14 08:56:33;;;;;;;4.20;2.28;;;;;;;10.44;85.19;101134.09;5063946;28;20059;-81
2024/02/14 08:59:00;;;;;;;4.22;2.60;;;;;;;10.55;84.25;101139.41;5064397;28;20049;-82
2024/02/14 09:01:27;;;;;;;2.50;2.20;;;;;;;10.63;83.25;101142.28;5063542;28;20056;-81
2024/02/14 09:03:53;;;;;;;5.78;3.15;;;;;;;10.55;83.97;101136.75;5064792;28;20543;-82
2024/02/14 09:06:20;;;;;;;2.40;1.98;;;;;;;10.71;83.42;101140.81;5064027;28;20068;-82
2024/02/14 09:08:48;;;;;;;6.22;2.83;;;;;;;10.83;82.83;101137.19;5063927;28;20057;-84
2024/02/14 09:11:17;;;;;;;3.28;2.40;;;;;;;11.05;81.45;101133.66;5064120;28;20053;-84
2024/02/14 09:13:44;;;;;;;2.55;2.35;;;;;;;11.18;81.00;101123.75;5065325;28;20083;-82
2024/02/14 09:16:11;;;;;;;2.97;2.50;;;;;;;11.17;80.56;101131.84;5065882;28;20102;-83
2024/02/14 09:18:38;;;;;;;3.72;2.65;;;;;;;11.26;80.14;101121.31;5067518;28;20049;-83
2024/02/14 09:21:05;;;;;;;3.05;2.10;;;;;;;11.11;80.91;101126.03;5066562;28;20087;-83
2024/02/14 09:23:32;;;;;;;5.05;2.90;;;;;;;11.07;80.70;101132.59;5064760;28;20110;-83
2024/02/14 09:26:04;;;;;;;2.92;2.53;;;;;;;11.19;80.12;101132.53;5064276;28;20063;-83
2024/02/14 09:28:37;;;;;;;5.65;2.40;;;;;;;11.23;80.38;101128.66;5063905;28;20111;-82
2024/02/14 09:31:09;;;;;;;4.63;2.50;;;;;;;11.23;80.36;101124.22;5065491;28;20064;-83
2024/02/14 09:33:36;;;;;;;4.57;2.25;;;;;;;11.35;79.74;101127.66;5064023;28;20049;-81
2024/02/14 09:36:21;;;;;;;3.60;2.22;;;;;;;11.40;79.43;101125.47;5064513;28;20780;-82
2024/02/14 09:38:48;;;;;;;6.60;2.20;;;;;;;11.50;79.64;101129.03;5060125;28;20056;-82
2024/02/14 09:41:24;;;;;;;3.58;2.28;;;;;;;11.48;79.49;101123.03;5062144;28;20056;-82
2024/02/14 09:44:04;;;;;;;3.25;2.30;;;;;;;11.36;79.37;101126.69;5063641;28;20048;-82
2024/02/14 09:46:39;;;;;;;4.10;2.28;;;;;;;11.38;79.82;101143.28;5067287;28;20053;-82
2024/02/14 09:49:22;;;;;;;4.55;2.55;;;;;;;11.31;79.74;101140.31;5066813;28;20132;-81
2024/02/14 09:51:50;;;;;;;5.53;2.20;;;;;;;11.40;79.99;101144.03;5067065;28;20045;-84
2024/02/14 09:54:20;;;;;;;4.85;2.58;;;;;;;11.46;79.72;101143.50;5068284;28;20033;-82
2024/02/14 09:56:59;;;;;;;3.70;1.70;;;;;;;11.51;78.98;101145.78;5072965;28;20049;-81
2024/02/14 09:59:26;;;;;;;4.85;2.38;;;;;;;11.52;79.04;101155.41;5058958;28;20061;-81
2024/02/14 10:01:53;;;;;;;7.32;3.20;;;;;;;11.47;78.90;101157.59;5059130;28;20045;-81
2024/02/14 10:04:21;;;;;;;5.10;2.20;;;;;;;11.44;79.10;101150.75;5066780;28;20049;-81
2024/02/14 10:06:49;;;;;;;4.45;2.28;;;;;;;11.44;78.80;101164.00;5067251;28;20053;-80
2024/02/14 10:09:20;;;;;;;5.57;2.05;;;;;;;11.44;78.31;101163.16;5068065;28;20057;-81
2024/02/14 10:11:47;;;;;;;4.15;2.28;;;;;;;11.36;78.96;101155.84;5067907;28;20060;-83
2024/02/14 10:14:16;;;;;;;2.28;1.70;;;;;;;11.39;78.63;101161.72;5071063;28;20041;-83
2024/02/14 10:16:42;;;;;;;3.63;1.73;;;;;;;11.39;78.87;101166.19;5076906;28;20054;-81
2024/02/14 10:19:16;;;;;;;4.03;2.22;;;;;;;11.49;77.88;101177.72;5076997;28;20280;-82
2024/02/14 10:21:42;;;;;;;4.75;2.20;;;;;;;11.56;77.76;101168.28;5077365;28;20037;-82
2024/02/14 10:24:10;;;;;;;5.60;2.35;;;;;;;11.47;78.27;101179.63;5073513;28;20037;-80
2024/02/14 10:26:37;;;;;;;6.63;2.33;;;;;;;11.41;78.66;101180.16;5071089;28;20153;-81
2024/02/14 10:29:04;;;;;;;4.28;1.95;;;;;;;11.43;78.18;101188.84;5077543;28;20060;-82
2024/02/14 10:31:32;;;;;;;6.22;2.05;;;;;;;11.57;77.78;101182.38;5069639;28;20037;-83
2024/02/14 10:34:00;;;;;;;5.32;2.42;;;;;;;11.61;78.35;101187.31;5076821;28;20045;-83
2024/02/14 10:36:27;;;;;;;4.13;2.30;;;;;;;11.71;78.57;101189.19;5073524;28;20060;-81
2024/02/14 10:38:57;;;;;;;3.80;2.10;;;;;;;11.81;79.97;101182.16;5065676;28;20111;-83
2024/02/14 10:41:25;;;;;;;4.22;2.08;;;;;;;11.91;79.79;101176.94;5066047;28;20199;-83
2024/02/14 10:43:53;;;;;;;4.20;2.00;;;;;;;11.98;80.49;101178.94;5063890;28;20049;-82
2024/02/14 10:46:22;;;;;;;6.07;2.40;;;;;;;12.00;79.80;101178.81;5058934;28;20052;-82
2024/02/14 10:48:55;;;;;;;5.68;2.38;;;;;;;11.89;80.40;101180.56;5071039;28;20056;-82
2024/02/14 10:51:37;;;;;;;3.78;2.08;;;;;;;11.86;81.74;101185.28;5057145;28;20052;-81
2024/02/14 10:54:10;;;;;;;3.50;2.65;;;;;;;11.84;82.24;101193.38;5060342;28;20084;-80
2024/02/14 10:56:43;;;;;;;;;;;;;;;11.79;84.00;101192.91;5050537;28;20081;-82
2024/02/14 10:59:13;;;;;;;6.30;2.92;;;;;;;11.78;83.58;101198.31;5063040;28;19920;-82
2024/02/14 11:01:45;;;;;;;4.50;2.40;;;;;;;11.81;83.94;101198.06;5064103;28;20045;-83
2024/02/14 11:04:19;;;;;;;6.70;2.78;;;;;;;11.77;85.32;101200.13;5063633;28;20048;-82
2024/02/14 11:06:58;;;;;;;4.90;2.55;;;;;;;11.62;86.70;101196.94;5063408;28;20049;-83
2024/02/14 11:09:36;;;;;;;4.68;2.42;;;;;;;11.48;88.56;101191.09;5063758;28;20061;-83
2024/02/14 11:12:09;;;;;;;6.28;2.97;;;;;;;11.51;89.92;101193.47;5062636;28;20099;-81
2024/02/14 11:14:36;;;;;;;8.07;3.42;;;;;;;11.40;90.66;101181.13;5062354;28;20120;-82
2024/02/14 11:17:10;;;;;;;7.65;3.00;;;;;;;11.63;89.20;101177.41;5063626;28;20068;-82
2024/02/14 11:19:41;;;;;;;5.20;2.67;;;;;;;11.88;88.62;101172.75;5062079;28;20056;-83
2024/02/14 11:22:15;;;;;;;7.82;3.90;;;;;;;11.93;88.94;101182.97;5063452;28;20056;-80
2024/02/14 11:24:42;;;;;;;6.60;3.80;;;;;;;12.04;88.59;101178.41;5063120;28;20049;-81
2024/02/14 11:27:12;;;;;;;7.63;3.45;;;;;;;12.23;87.31;101182.16;5062284;28;20056;-83
2024/02/14 11:29:41;;;;;;;8.35;3.67;;;;;;;12.27;86.53;101175.63;5057109;28;20053;-83
2024/02/14 11:32:09;;;;;;;6.55;3.33;;;;;;;12.42;86.75;101182.28;5058671;28;20045;-83
2024/02/14 11:34:36;;;;;;;4.88;2.85;;;;;;;12.44;85.71;101180.31;5046312;28;20077;-80
2024/02/14 11:37:05;;;;;;;7.47;3.03;;;;;;;12.44;85.79;101177.66;5063244;28;20076;-82
2024/02/14 11:39:37;;;;;;;7.38;2.97;;;;;;;12.46;84.00;101178.38;5058273;28;20569;-82
2024/02/14 11:42:09;;;;;;;7.50;2.70;;;;;;;12.50;82.74;101169.19;5064590;28;20143;-82
2024/02/14 11:44:37;;;;;;;4.65;2.40;;;;;;;12.62;82.25;101170.75;5055498;28;20664;-83
2024/02/14 11:47:04;;;;;;;4.95;2.20;;;;;;;12.69;81.58;101172.88;5064109;28;20056;-82
2024/02/14 11:49:31;;;;;;;4.72;1.90;;;;;;;12.63;81.56;101169.78;5053755;28;20055;-83
2024/02/14 11:51:58;;;;;;;5.00;2.17;;;;;;;12.58;81.74;101165.84;5062013;28;20136;-83
2024/02/14 11:54:26;;;;;;;6.60;2.78;;;;;;;12.58;81.71;101166.69;5062756;28;20049;-83
2024/02/14 11:56:53;;;;;;;4.35;2.50;;;;;;;12.57;80.78;101162.34;5064287;28;20084;-80
2024/02/14 11:59:22;;;;;;;4.53;2.20;;;;;;;12.34;81.62;101167.00;5063536;28;20053;-83
2024/02/14 12:01:51;;;;;;;2.67;1.90;;;;;;;12.37;81.15;101152.63;5065451;28;20048;-82
2024/02/14 12:04:19;;;;;;;2.63;2.00;;;;;;;12.44;80.56;101150.28;5064752;28;20059;-81
2024/02/14 12:06:46;;;;;;;2.15;1.88;;;;;;;12.54;80.40;101156.47;5066091;28;20044;-84
2024/02/14 12:09:13;;;;;;;3.17;1.83;;;;;;;12.56;79.68;101162.50;5070306;28;20044;-84
2024/02/14 12:11:43;;;;;;;1.90;1.70;;;;;;;12.40;80.17;101157.66;5074669;28;20056;-80
2024/02/14 12:14:11;;;;;;;3.85;1.63;;;;;;;12.58;79.26;101164.03;5074316;28;20088;-81
2024/02/14 12:16:40;;;;;;;3.85;1.88;;;;;;;12.52;79.98;101153.09;5072867;28;20060;-77
2024/02/14 12:19:09;;;;;;;2.47;1.60;;;;;;;12.51;80.76;101159.41;5075107;28;20029;-81
2024/02/14 12:21:36;;;;;;;2.50;1.42;;;;;;;12.45;81.09;101154.59;5073995;28;20032;-81
2024/02/14 12:24:04;;;;;;;3.47;1.95;;;;;;;12.40;81.03;101152.34;5074567;28;20041;-81
2024/02/14 12:26:32;;;;;;;1.55;1.40;;;;;;;12.45;81.15;101154.59;5076841;28;20048;-82
2024/02/14 12:29:02;;;;;;;2.15;1.58;;;;;;;12.51;80.92;101157.59;5061235;28;20036;-78
2024/02/14 12:31:31;;;;;;;2.85;1.98;;;;;;;12.53;81.58;101157.44;5060108;28;20045;-81
2024/02/14 12:33:59;;;;;;;1.85;1.52;;;;;;;12.50;80.93;101153.25;5076090;28;20047;-82
2024/02/14 12:36:28;;;;;;;1.80;1.55;;;;;;;12.54;80.83;101157.28;5076142;28;20041;-82
2024/02/14 12:38:55;;;;;;;2.63;1.50;;;;;;;12.42;81.71;101154.91;5075087;28;20112;-80